createdAt,value
2019-05-28T00:00:13.522Z,99.99
2019-05-28T00:01:13.505Z,99.99
2019-05-28T00:02:13.485Z,99.99
2019-05-28T00:03:13.467Z,99.99
2019-05-28T00:04:13.455Z,99.99
2019-05-28T00:05:13.441Z,99.99
2019-05-28T00:06:13.471Z,99.99
2019-05-28T00:07:13.404Z,99.99
2019-05-28T00:08:13.389Z,99.99
2019-05-28T00:09:13.372Z,99.99
2019-05-28T00:10:13.383Z,99.99
2019-05-28T00:11:13.338Z,99.99
2019-05-28T00:12:13.332Z,99.99
2019-05-28T00:13:13.304Z,99.99
2019-05-28T00:14:13.287Z,99.99
2019-05-28T00:15:13.272Z,99.99
2019-05-28T00:16:13.259Z,99.99
2019-05-28T00:17:13.242Z,99.99
2019-05-28T00:18:13.232Z,99.99
2019-05-28T00:19:13.207Z,99.99
2019-05-28T00:20:13.190Z,99.99
2019-05-28T00:21:13.241Z,99.99
2019-05-28T00:22:13.156Z,99.99
2019-05-28T00:23:13.141Z,99.99
2019-05-28T00:24:13.123Z,99.99
2019-05-28T00:25:13.104Z,99.99
2019-05-28T00:26:13.090Z,99.99
2019-05-28T00:27:13.072Z,99.99
2019-05-28T00:28:13.058Z,99.99
2019-05-28T00:29:13.038Z,99.99
2019-05-28T00:30:19.888Z,99.99
2019-05-28T00:31:13.004Z,99.99
2019-05-28T00:32:12.988Z,99.99
2019-05-28T00:33:12.973Z,99.99
2019-05-28T00:34:12.957Z,99.99
2019-05-28T00:35:12.937Z,99.99
2019-05-28T00:36:12.922Z,99.99
2019-05-28T00:37:12.906Z,99.99
2019-05-28T00:38:12.892Z,99.99
2019-05-28T00:39:12.872Z,99.99
2019-05-28T00:40:12.856Z,99.99
2019-05-28T00:41:12.842Z,99.99
2019-05-28T00:42:12.820Z,99.99
2019-05-28T00:43:12.804Z,99.99
2019-05-28T00:44:12.791Z,99.99
2019-05-28T00:45:12.775Z,99.99
2019-05-28T00:46:12.754Z,99.99
2019-05-28T00:47:12.744Z,99.99
2019-05-28T00:48:12.721Z,99.99
2019-05-28T00:49:12.704Z,99.99
2019-05-28T00:50:12.695Z,99.99
2019-05-28T00:51:12.669Z,99.99
2019-05-28T00:52:12.657Z,99.99
2019-05-28T00:53:12.639Z,99.99
2019-05-28T00:54:12.619Z,99.99
2019-05-28T00:55:12.610Z,99.99
2019-05-28T00:56:12.587Z,99.99
2019-05-28T00:57:12.577Z,99.99
2019-05-28T00:58:12.556Z,99.99
2019-05-28T00:59:12.535Z,99.99
2019-05-28T01:00:12.520Z,99.99
2019-05-28T01:01:13.218Z,99.99
2019-05-28T01:02:12.487Z,99.99
2019-05-28T01:03:12.469Z,99.99
2019-05-28T01:04:12.457Z,99.99
2019-05-28T01:05:12.439Z,99.99
2019-05-28T01:06:12.425Z,99.99
2019-05-28T01:07:12.403Z,99.99
2019-05-28T01:08:12.389Z,99.99
2019-05-28T01:09:12.377Z,99.99
2019-05-28T01:10:12.356Z,99.99
2019-05-28T01:11:12.339Z,99.99
2019-05-28T01:12:12.320Z,99.99
2019-05-28T01:13:12.304Z,99.99
2019-05-28T01:14:12.285Z,99.99
2019-05-28T01:15:12.270Z,99.99
2019-05-28T01:16:12.260Z,99.99
2019-05-28T01:17:12.239Z,99.99
2019-05-28T01:18:12.219Z,99.99
2019-05-28T01:19:12.203Z,99.99
2019-05-28T01:20:12.188Z,99.99
2019-05-28T01:21:12.171Z,99.99
2019-05-28T01:22:12.163Z,99.99
2019-05-28T01:23:12.134Z,99.99
2019-05-28T01:24:12.118Z,99.99
2019-05-28T01:25:12.103Z,99.99
2019-05-28T01:26:12.087Z,99.99
2019-05-28T01:27:12.069Z,99.99
2019-05-28T01:28:12.048Z,99.99
2019-05-28T01:29:12.034Z,99.99
2019-05-28T01:30:12.041Z,99.99
2019-05-28T01:31:12.001Z,99.99
2019-05-28T01:32:11.987Z,99.99
2019-05-28T01:33:11.967Z,99.99
2019-05-28T01:34:11.951Z,99.99
2019-05-28T01:35:11.930Z,99.99
2019-05-28T01:36:11.917Z,99.99
2019-05-28T01:37:11.894Z,99.99
2019-05-28T01:38:11.882Z,99.99
2019-05-28T01:39:11.865Z,99.99
2019-05-28T01:40:11.849Z,99.99
2019-05-28T01:41:11.827Z,99.99
2019-05-28T01:42:11.819Z,99.99
2019-05-28T01:43:11.800Z,99.99
2019-05-28T01:44:11.781Z,99.99
2019-05-28T01:45:11.765Z,99.99
2019-05-28T01:46:11.743Z,99.99
2019-05-28T01:47:11.726Z,99.99
2019-05-28T01:48:11.709Z,99.99
2019-05-28T01:49:11.693Z,99.99
2019-05-28T01:50:11.675Z,99.99
2019-05-28T01:51:11.660Z,99.99
2019-05-28T01:52:11.639Z,99.99
2019-05-28T01:53:11.623Z,99.99
2019-05-28T01:54:11.607Z,99.99
2019-05-28T01:55:11.593Z,99.99
2019-05-28T01:56:11.571Z,99.99
2019-05-28T01:57:11.560Z,99.99
2019-05-28T01:58:11.567Z,99.99
2019-05-28T01:59:11.519Z,99.99
2019-05-28T02:00:11.507Z,99.99
2019-05-28T02:01:13.287Z,99.99
2019-05-28T02:02:11.467Z,99.99
2019-05-28T02:03:11.451Z,99.99
2019-05-28T02:04:11.435Z,99.99
2019-05-28T02:05:11.422Z,99.99
2019-05-28T02:06:11.398Z,99.99
2019-05-28T02:07:11.395Z,99.99
2019-05-28T02:08:11.362Z,99.99
2019-05-28T02:09:11.352Z,99.99
2019-05-28T02:10:11.330Z,99.99
2019-05-28T02:11:11.318Z,99.99
2019-05-28T02:12:11.299Z,99.99
2019-05-28T02:13:11.290Z,99.99
2019-05-28T02:14:11.262Z,99.99
2019-05-28T02:15:11.246Z,99.99
2019-05-28T02:16:11.232Z,99.99
2019-05-28T02:17:11.213Z,99.99
2019-05-28T02:18:11.190Z,99.99
2019-05-28T02:19:11.175Z,99.99
2019-05-28T02:20:11.156Z,99.99
2019-05-28T02:21:11.138Z,99.99
2019-05-28T02:22:11.121Z,99.99
2019-05-28T02:23:11.103Z,99.99
2019-05-28T02:24:11.086Z,99.99
2019-05-28T02:25:11.064Z,99.99
2019-05-28T02:26:11.054Z,99.99
2019-05-28T02:27:11.031Z,99.99
2019-05-28T02:28:11.018Z,99.99
2019-05-28T02:29:10.999Z,99.99
2019-05-28T02:30:11.177Z,99.99
2019-05-28T02:31:10.968Z,99.99
2019-05-28T02:32:10.944Z,99.99
2019-05-28T02:33:10.926Z,99.99
2019-05-28T02:34:10.912Z,99.99
2019-05-28T02:35:10.897Z,99.99
2019-05-28T02:36:10.878Z,99.99
2019-05-28T02:37:10.858Z,99.99
2019-05-28T02:38:10.841Z,99.99
2019-05-28T02:39:10.882Z,99.99
2019-05-28T02:40:10.808Z,99.99
2019-05-28T02:41:10.788Z,99.99
2019-05-28T02:42:10.772Z,99.99
2019-05-28T02:43:10.755Z,99.99
2019-05-28T02:44:10.732Z,99.99
2019-05-28T02:45:10.730Z,99.99
2019-05-28T02:46:10.704Z,99.99
2019-05-28T02:47:10.684Z,99.99
2019-05-28T02:48:11.000Z,99.99
2019-05-28T02:49:10.646Z,99.99
2019-05-28T02:50:10.637Z,99.99
2019-05-28T02:51:10.617Z,99.99
2019-05-28T02:52:10.594Z,99.99
2019-05-28T02:53:10.586Z,99.99
2019-05-28T02:54:10.563Z,99.99
2019-05-28T02:55:10.547Z,99.99
2019-05-28T02:56:10.525Z,99.99
2019-05-28T02:57:10.509Z,99.99
2019-05-28T02:58:10.490Z,99.99
2019-05-28T02:59:10.470Z,99.99
2019-05-28T03:00:10.450Z,99.99
2019-05-28T03:01:10.436Z,99.99
2019-05-28T03:02:10.418Z,99.99
2019-05-28T03:03:10.398Z,99.99
2019-05-28T03:04:10.382Z,99.99
2019-05-28T03:05:10.368Z,99.99
2019-05-28T03:06:10.345Z,99.99
2019-05-28T03:07:10.345Z,99.99
2019-05-28T03:08:10.316Z,99.99
2019-05-28T03:09:10.292Z,99.99
2019-05-28T03:10:10.274Z,99.99
2019-05-28T03:11:10.262Z,99.99
2019-05-28T03:12:10.238Z,99.99
2019-05-28T03:13:10.217Z,99.99
2019-05-28T03:14:10.205Z,99.99
2019-05-28T03:15:10.188Z,99.99
2019-05-28T03:16:10.171Z,99.99
2019-05-28T03:17:10.146Z,99.99
2019-05-28T03:18:10.134Z,99.99
2019-05-28T03:19:10.114Z,99.99
2019-05-28T03:20:10.094Z,99.99
2019-05-28T03:21:10.079Z,99.99
2019-05-28T03:22:10.059Z,99.99
2019-05-28T03:23:10.044Z,99.99
2019-05-28T03:24:10.021Z,99.99
2019-05-28T03:25:10.006Z,99.99
2019-05-28T03:26:09.998Z,99.99
2019-05-28T03:27:09.974Z,99.99
2019-05-28T03:28:09.956Z,99.99
2019-05-28T03:29:09.936Z,99.99
2019-05-28T03:30:09.920Z,99.99
2019-05-28T03:31:09.907Z,99.99
2019-05-28T03:32:10.069Z,99.99
2019-05-28T03:33:09.872Z,99.99
2019-05-28T03:34:09.845Z,99.99
2019-05-28T03:35:09.827Z,99.99
2019-05-28T03:36:09.809Z,99.99
2019-05-28T03:37:09.791Z,99.99
2019-05-28T03:38:09.767Z,99.99
2019-05-28T03:39:09.761Z,99.99
2019-05-28T03:40:09.751Z,99.99
2019-05-28T03:41:09.720Z,99.99
2019-05-28T03:42:09.702Z,99.99
2019-05-28T03:43:09.683Z,99.99
2019-05-28T03:44:09.665Z,99.99
2019-05-28T03:45:09.658Z,99.99
2019-05-28T03:46:09.635Z,99.99
2019-05-28T03:47:09.613Z,99.99
2019-05-28T03:48:09.592Z,99.99
2019-05-28T03:49:09.575Z,99.99
2019-05-28T03:50:09.566Z,99.99
2019-05-28T03:51:09.536Z,99.99
2019-05-28T03:52:09.523Z,99.99
2019-05-28T03:53:09.506Z,99.99
2019-05-28T03:54:09.481Z,99.99
2019-05-28T03:55:09.463Z,99.99
2019-05-28T03:56:09.447Z,99.99
2019-05-28T03:57:09.422Z,99.99
2019-05-28T03:58:09.409Z,99.99
2019-05-28T03:59:09.394Z,99.99
2019-05-28T04:00:09.373Z,99.99
2019-05-28T04:01:09.357Z,99.99
2019-05-28T04:02:22.504Z,99.99
2019-05-28T04:03:09.325Z,99.99
2019-05-28T04:04:09.297Z,99.99
2019-05-28T04:05:09.284Z,99.99
2019-05-28T04:06:09.263Z,99.99
2019-05-28T04:07:09.245Z,99.99
2019-05-28T04:08:09.244Z,99.99
2019-05-28T04:09:09.263Z,99.99
2019-05-28T04:10:09.193Z,99.99
2019-05-28T04:11:09.175Z,99.99
2019-05-28T04:12:09.156Z,99.99
2019-05-28T04:13:09.134Z,99.99
2019-05-28T04:14:09.123Z,99.99
2019-05-28T04:15:09.102Z,99.99
2019-05-28T04:16:09.081Z,99.99
2019-05-28T04:17:09.061Z,99.99
2019-05-28T04:18:09.275Z,99.99
2019-05-28T04:19:09.033Z,99.99
2019-05-28T04:20:09.014Z,99.99
2019-05-28T04:21:08.996Z,99.99
2019-05-28T04:22:08.987Z,99.99
2019-05-28T04:23:08.953Z,99.99
2019-05-28T04:24:08.938Z,99.99
2019-05-28T04:25:08.921Z,99.99
2019-05-28T04:26:08.901Z,99.99
2019-05-28T04:27:08.881Z,99.99
2019-05-28T04:28:08.866Z,99.99
2019-05-28T04:29:08.860Z,99.99
2019-05-28T04:30:08.832Z,99.99
2019-05-28T04:31:08.816Z,99.99
2019-05-28T04:32:08.998Z,99.99
2019-05-28T04:33:08.777Z,99.99
2019-05-28T04:34:08.760Z,99.99
2019-05-28T04:35:08.739Z,99.99
2019-05-28T04:36:08.726Z,99.99
2019-05-28T04:37:08.710Z,99.99
2019-05-28T04:38:08.695Z,99.99
2019-05-28T04:39:08.673Z,99.99
2019-05-28T04:40:08.649Z,99.99
2019-05-28T04:41:08.632Z,99.99
2019-05-28T04:42:08.617Z,99.99
2019-05-28T04:43:08.602Z,99.99
2019-05-28T04:44:08.579Z,99.99
2019-05-28T04:45:08.564Z,99.99
2019-05-28T04:46:08.537Z,99.99
2019-05-28T04:47:09.072Z,99.99
2019-05-28T04:48:08.506Z,99.99
2019-05-28T04:49:08.488Z,99.99
2019-05-28T04:50:08.466Z,99.99
2019-05-28T04:51:08.448Z,99.99
2019-05-28T04:52:08.433Z,99.99
2019-05-28T04:53:08.419Z,99.99
2019-05-28T04:54:08.396Z,99.99
2019-05-28T04:55:08.386Z,99.99
2019-05-28T04:56:08.362Z,99.99
2019-05-28T04:57:08.349Z,99.99
2019-05-28T04:58:08.338Z,99.99
2019-05-28T04:59:08.310Z,99.99
2019-05-28T05:00:08.289Z,99.99
2019-05-28T05:01:08.270Z,99.99
2019-05-28T05:02:08.256Z,99.99
2019-05-28T05:03:08.240Z,99.99
2019-05-28T05:04:08.215Z,99.99
2019-05-28T05:05:08.201Z,99.99
2019-05-28T05:06:08.186Z,99.99
2019-05-28T05:07:08.162Z,99.99
2019-05-28T05:08:08.149Z,99.99
2019-05-28T05:09:08.130Z,99.99
2019-05-28T05:10:08.111Z,99.99
2019-05-28T05:11:08.090Z,99.99
2019-05-28T05:12:08.073Z,99.99
2019-05-28T05:13:08.057Z,99.99
2019-05-28T05:14:08.040Z,99.99
2019-05-28T05:15:08.032Z,99.99
2019-05-28T05:16:08.006Z,99.99
2019-05-28T05:17:07.996Z,99.99
2019-05-28T05:18:07.979Z,99.99
2019-05-28T05:19:07.954Z,99.99
2019-05-28T05:20:07.937Z,99.99
2019-05-28T05:21:07.917Z,99.99
2019-05-28T05:22:07.906Z,99.99
2019-05-28T05:23:07.882Z,99.99
2019-05-28T05:24:07.863Z,99.99
2019-05-28T05:25:07.852Z,99.99
2019-05-28T05:26:07.829Z,99.99
2019-05-28T05:27:07.812Z,99.99
2019-05-28T05:28:07.793Z,99.99
2019-05-28T05:29:07.776Z,99.99
2019-05-28T05:30:07.760Z,99.99
2019-05-28T05:31:07.755Z,99.99
2019-05-28T05:32:07.725Z,99.99
2019-05-28T05:33:19.739Z,99.99
2019-05-28T05:34:07.693Z,99.99
2019-05-28T05:35:07.671Z,99.99
2019-05-28T05:36:07.661Z,99.99
2019-05-28T05:37:07.642Z,99.99
2019-05-28T05:38:07.627Z,99.99
2019-05-28T05:39:07.604Z,99.99
2019-05-28T05:40:07.594Z,99.99
2019-05-28T05:41:07.575Z,99.99
2019-05-28T05:42:07.556Z,99.68
2019-05-28T05:43:07.536Z,99.91
2019-05-28T05:44:07.514Z,99.91
2019-05-28T05:45:07.938Z,99.99
2019-05-28T05:46:07.486Z,99.99
2019-05-28T05:48:07.450Z,99.58
2019-05-28T05:49:07.432Z,99.19
2019-05-28T05:50:07.425Z,99.29
2019-05-28T05:51:07.396Z,98.91
2019-05-28T05:52:07.427Z,98.91
2019-05-28T05:53:07.365Z,98.14
2019-05-28T05:54:07.355Z,98.52
2019-05-28T05:55:07.331Z,98.86
2019-05-28T05:56:07.314Z,99.15
2019-05-28T05:57:07.297Z,98.57
2019-05-28T05:58:07.281Z,98.86
2019-05-28T05:59:07.263Z,98.86
2019-05-28T06:00:11.191Z,98.77
2019-05-28T06:01:07.229Z,98.28
2019-05-28T06:02:07.213Z,98.10
2019-05-28T06:03:07.198Z,98.38
2019-05-28T06:04:07.186Z,97.38
2019-05-28T06:05:07.161Z,97.09
2019-05-28T06:06:07.146Z,97.38
2019-05-28T06:07:07.126Z,97.47
2019-05-28T06:08:07.442Z,96.80
2019-05-28T06:09:07.094Z,96.80
2019-05-28T06:10:07.077Z,96.42
2019-05-28T06:11:07.070Z,96.51
2019-05-28T06:12:07.045Z,96.61
2019-05-28T06:13:07.035Z,95.94
2019-05-28T06:14:07.013Z,95.26
2019-05-28T06:15:06.998Z,96.61
2019-05-28T06:16:06.979Z,95.55
2019-05-28T06:17:06.973Z,96.32
2019-05-28T06:18:59.532Z,95.07
2019-05-28T06:19:59.487Z,94.69
2019-05-28T06:21:12.261Z,94.88
2019-05-28T06:21:59.455Z,94.69
2019-05-28T06:22:59.455Z,95.07
2019-05-28T06:23:59.420Z,95.21
2019-05-28T06:24:59.406Z,95.12
2019-05-28T06:25:59.396Z,95.12
2019-05-28T06:26:59.783Z,94.64
2019-05-28T06:27:59.359Z,94.35
2019-05-28T06:28:59.352Z,94.54
2019-05-28T06:29:59.414Z,94.54
2019-05-28T06:30:59.310Z,94.35
2019-05-28T06:31:59.297Z,93.49
2019-05-28T06:32:59.279Z,93.49
2019-05-28T06:33:59.273Z,93.20
2019-05-28T06:34:59.246Z,93.01
2019-05-28T06:35:59.238Z,92.72
2019-05-28T06:36:59.214Z,92.00
2019-05-28T06:37:59.200Z,90.75
2019-05-28T06:38:59.181Z,92.29
2019-05-28T06:39:59.248Z,91.52
2019-05-28T06:40:59.153Z,90.66
2019-05-28T06:41:59.140Z,91.47
2019-05-28T06:42:59.116Z,91.61
2019-05-28T06:43:59.111Z,90.12
2019-05-28T06:44:59.104Z,89.07
2019-05-28T06:45:59.071Z,89.26
2019-05-28T06:46:59.060Z,89.30
2019-05-28T06:47:59.043Z,88.44
2019-05-28T06:48:59.032Z,87.38
2019-05-28T06:49:59.011Z,86.42
2019-05-28T06:50:58.998Z,86.85
2019-05-28T06:51:58.979Z,87.42
2019-05-28T06:52:58.972Z,85.50
2019-05-28T06:53:58.948Z,85.31
2019-05-28T06:54:58.939Z,85.21
2019-05-28T06:55:58.920Z,84.54
2019-05-28T06:56:58.904Z,84.63
2019-05-28T06:57:58.886Z,84.83
2019-05-28T06:58:58.880Z,84.92
2019-05-28T06:59:58.862Z,84.98
2019-05-28T07:00:58.900Z,84.88
2019-05-28T07:01:58.841Z,85.78
2019-05-28T07:02:58.815Z,85.11
2019-05-28T07:04:12.750Z,84.54
2019-05-28T07:04:58.792Z,85.21
2019-05-28T07:06:07.194Z,84.25
2019-05-28T07:06:59.259Z,84.92
2019-05-28T07:07:58.740Z,83.52
2019-05-28T07:08:58.742Z,84.48
2019-05-28T07:09:58.713Z,83.91
2019-05-28T07:10:58.909Z,82.56
2019-05-28T07:11:58.687Z,82.17
2019-05-28T07:12:58.676Z,81.88
2019-05-28T07:13:58.662Z,81.88
2019-05-28T07:14:58.975Z,82.85
2019-05-28T07:15:58.630Z,83.08
2019-05-28T07:16:58.614Z,82.60
2019-05-28T07:17:59.703Z,80.10
2019-05-28T07:18:58.585Z,80.68
2019-05-28T07:19:58.593Z,80.29
2019-05-28T07:20:58.560Z,80.10
2019-05-28T07:21:58.547Z,80.29
2019-05-28T07:22:58.528Z,79.13
2019-05-28T07:23:58.515Z,78.98
2019-05-28T07:24:58.501Z,78.75
2019-05-28T07:25:58.507Z,79.46
2019-05-28T07:28:26.483Z,79.36
2019-05-28T07:35:44.342Z,77.09
2019-05-28T07:36:28.678Z,76.71
2019-05-28T07:37:28.667Z,76.42
2019-05-28T07:38:28.648Z,76.32
2019-05-28T07:39:28.640Z,76.90
2019-05-28T07:40:32.059Z,77.51
2019-05-28T07:41:28.611Z,76.07
2019-05-28T07:42:32.600Z,75.59
2019-05-28T07:43:28.590Z,75.05
2019-05-28T07:44:28.581Z,75.76
2019-05-28T07:45:28.561Z,74.51
2019-05-28T07:46:28.549Z,73.63
2019-05-28T07:47:28.536Z,70.16
2019-05-28T07:48:28.521Z,70.20
2019-05-28T07:49:28.507Z,69.49
2019-05-28T07:50:28.497Z,69.58
2019-05-28T07:51:28.492Z,71.12
2019-05-28T07:52:28.474Z,72.00
2019-05-28T07:53:39.658Z,70.74
2019-05-28T07:54:28.451Z,70.84
2019-05-28T07:55:28.438Z,69.84
2019-05-28T07:56:28.426Z,70.13
2019-05-28T07:57:28.422Z,69.26
2019-05-28T07:58:28.403Z,69.93
2019-05-28T07:59:28.389Z,69.84
2019-05-28T08:00:28.383Z,70.19
2019-05-28T08:01:28.375Z,71.00
2019-05-28T08:02:28.353Z,71.28
2019-05-28T08:03:28.345Z,72.25
2019-05-28T08:04:28.329Z,71.90
2019-05-28T08:05:28.323Z,69.71
2019-05-28T08:06:28.305Z,69.13
2019-05-28T08:07:29.727Z,68.98
2019-05-28T08:08:28.414Z,69.46
2019-05-28T08:09:28.279Z,69.26
2019-05-28T08:10:29.454Z,68.68
2019-05-28T08:11:28.252Z,68.88
2019-05-28T08:13:40.141Z,68.78
2019-05-28T08:14:28.226Z,69.74
2019-05-28T08:15:28.213Z,67.82
2019-05-28T08:16:28.205Z,67.04
2019-05-28T08:17:28.194Z,65.59
2019-05-28T08:18:28.183Z,65.69
2019-05-28T08:19:28.168Z,65.50
2019-05-28T08:20:28.162Z,63.85
2019-05-28T08:21:32.135Z,65.05
2019-05-28T08:22:41.735Z,64.50
2019-05-28T08:23:28.135Z,63.92
2019-05-28T08:24:28.124Z,63.56
2019-05-28T08:25:46.089Z,61.95
2019-05-28T08:26:28.101Z,61.21
2019-05-28T08:27:28.089Z,60.27
2019-05-28T08:28:28.083Z,60.68
2019-05-28T08:29:28.075Z,59.06
2019-05-28T08:30:28.071Z,58.09
2019-05-28T08:31:28.058Z,58.87
2019-05-28T08:32:28.196Z,58.22
2019-05-28T08:33:28.036Z,58.83
2019-05-28T08:34:28.041Z,57.06
2019-05-28T08:35:28.021Z,57.06
2019-05-28T08:36:28.013Z,58.12
2019-05-28T08:37:28.010Z,58.93
2019-05-28T08:38:28.018Z,57.76
2019-05-28T08:39:27.991Z,56.21
2019-05-28T08:40:27.985Z,54.94
2019-05-28T08:41:27.985Z,54.94
2019-05-28T08:42:28.151Z,55.33
2019-05-28T08:43:27.963Z,55.21
2019-05-28T08:44:27.961Z,55.47
2019-05-28T08:45:27.951Z,56.25
2019-05-28T08:46:27.955Z,57.32
2019-05-28T08:47:27.933Z,56.45
2019-05-28T08:48:27.934Z,56.81
2019-05-28T08:49:27.925Z,57.78
2019-05-28T08:50:34.659Z,59.13
2019-05-28T08:51:27.909Z,58.45
2019-05-28T08:52:27.907Z,58.09
2019-05-28T08:53:27.894Z,57.51
2019-05-28T08:54:27.892Z,57.09
2019-05-28T08:55:27.883Z,57.48
2019-05-28T08:56:27.879Z,57.87
2019-05-28T08:57:27.874Z,57.78
2019-05-28T08:58:27.876Z,57.87
2019-05-28T08:59:27.864Z,57.22
2019-05-28T09:00:27.863Z,57.93
2019-05-28T09:01:27.849Z,56.57
2019-05-28T09:02:28.993Z,56.01
2019-05-28T09:03:27.890Z,54.27
2019-05-28T09:04:27.849Z,56.92
2019-05-28T09:05:27.833Z,55.98
2019-05-28T09:06:27.828Z,52.98
2019-05-28T09:07:27.823Z,52.40
2019-05-28T09:08:38.410Z,53.01
2019-05-28T09:09:27.814Z,53.50
2019-05-28T09:10:27.808Z,53.23
2019-05-28T09:11:27.802Z,52.55
2019-05-28T09:12:27.800Z,51.80
2019-05-28T09:13:27.852Z,51.90
2019-05-28T09:14:27.794Z,51.41
2019-05-28T09:15:27.792Z,49.49
2019-05-28T09:16:27.783Z,48.32
2019-05-28T09:17:27.781Z,48.12
2019-05-28T09:18:27.778Z,48.71
2019-05-28T09:19:27.778Z,50.26
2019-05-28T09:20:27.774Z,48.61
2019-05-28T09:21:27.768Z,50.14
2019-05-28T09:22:27.779Z,49.56
2019-05-28T09:23:27.831Z,51.21
2019-05-28T09:24:28.066Z,51.31
2019-05-28T09:25:27.758Z,51.09
2019-05-28T09:26:27.759Z,50.65
2019-05-28T09:27:27.755Z,52.19
2019-05-28T09:28:30.726Z,52.37
2019-05-28T09:29:27.750Z,52.94
2019-05-28T09:30:27.744Z,54.66
2019-05-28T09:31:27.786Z,55.53
2019-05-28T09:32:27.736Z,55.41
2019-05-28T09:33:27.734Z,55.57
2019-05-28T09:34:27.734Z,56.05
2019-05-28T09:35:43.256Z,56.41
2019-05-28T09:36:27.726Z,57.26
2019-05-28T09:37:27.721Z,58.23
2019-05-28T09:38:27.714Z,58.42
2019-05-28T09:39:27.716Z,58.01
2019-05-28T09:40:47.928Z,57.33
2019-05-28T09:41:27.706Z,58.56
2019-05-28T09:42:27.720Z,58.82
2019-05-28T09:43:27.692Z,59.21
2019-05-28T09:44:27.687Z,59.98
2019-05-28T09:45:27.684Z,60.05
2019-05-28T09:46:27.676Z,60.34
2019-05-28T09:47:27.673Z,61.11
2019-05-28T09:48:27.669Z,61.69
2019-05-28T09:49:27.661Z,61.79
2019-05-28T09:50:31.068Z,61.08
2019-05-28T09:51:27.650Z,61.86
2019-05-28T09:52:27.655Z,61.47
2019-05-28T09:53:27.650Z,62.15
2019-05-28T09:54:27.634Z,62.15
2019-05-28T09:55:27.626Z,61.83
2019-05-28T09:56:27.622Z,62.79
2019-05-28T09:57:27.614Z,62.79
2019-05-28T09:58:27.609Z,63.47
2019-05-28T09:59:40.689Z,62.98
2019-05-28T10:00:27.596Z,62.53
2019-05-28T10:01:27.599Z,61.95
2019-05-28T10:02:27.780Z,60.50
2019-05-28T10:03:27.574Z,58.67
2019-05-28T10:04:45.937Z,57.79
2019-05-28T10:05:27.765Z,58.76
2019-05-28T10:06:36.844Z,59.44
2019-05-28T10:07:27.548Z,59.25
2019-05-28T10:08:27.738Z,59.28
2019-05-28T10:09:27.616Z,59.76
2019-05-28T10:10:27.527Z,60.24
2019-05-28T10:11:27.538Z,59.47
2019-05-28T10:12:27.511Z,59.18
2019-05-28T10:13:37.918Z,59.86
2019-05-28T10:14:27.504Z,60.24
2019-05-28T10:15:27.505Z,60.24
2019-05-28T10:16:27.479Z,61.02
2019-05-28T10:17:27.473Z,60.14
2019-05-28T10:18:27.464Z,58.40
2019-05-28T10:30:39.561Z,57.30
2019-05-28T10:31:37.918Z,56.07
2019-05-28T10:34:18.297Z,56.24
2019-05-28T10:35:18.278Z,56.94
2019-05-28T10:36:34.484Z,56.46
2019-05-28T10:37:18.287Z,56.07
2019-05-28T10:38:18.252Z,56.56
2019-05-28T10:39:18.247Z,56.65
2019-05-28T10:40:18.237Z,56.85
2019-05-28T10:41:18.231Z,56.16
2019-05-28T10:42:18.228Z,56.85
2019-05-28T10:43:18.219Z,57.53
2019-05-28T10:44:18.214Z,56.77
2019-05-28T10:45:18.211Z,55.32
2019-05-28T10:46:18.208Z,56.39
2019-05-28T10:47:18.193Z,56.71
2019-05-28T10:48:18.183Z,56.90
2019-05-28T10:49:18.183Z,55.67
2019-05-28T10:50:18.187Z,55.02
2019-05-28T10:51:18.166Z,54.07
2019-05-28T10:52:18.160Z,54.17
2019-05-28T10:53:18.162Z,53.22
2019-05-28T10:54:18.152Z,53.03
2019-05-28T10:55:18.150Z,51.99
2019-05-28T10:56:18.135Z,50.51
2019-05-28T10:57:18.132Z,52.25
2019-05-28T10:58:18.123Z,52.06
2019-05-28T10:59:18.131Z,52.06
2019-05-28T11:00:18.118Z,51.93
2019-05-28T11:01:18.213Z,53.56
2019-05-28T11:02:18.119Z,52.81
2019-05-28T11:03:18.102Z,53.17
2019-05-28T11:04:18.097Z,52.98
2019-05-28T11:05:18.097Z,52.30
2019-05-28T11:06:18.084Z,52.11
2019-05-28T11:07:18.087Z,51.79
2019-05-28T11:08:18.076Z,52.18
2019-05-28T11:09:18.106Z,52.18
2019-05-28T11:10:24.257Z,51.72
2019-05-28T11:11:18.062Z,51.65
2019-05-28T11:12:18.068Z,50.60
2019-05-28T11:13:18.061Z,49.95
2019-05-28T11:14:18.047Z,49.85
2019-05-28T11:15:18.041Z,48.54
2019-05-28T11:16:18.037Z,47.96
2019-05-28T11:17:18.032Z,47.49
2019-05-28T11:18:18.025Z,47.98
2019-05-28T11:19:18.029Z,48.63
2019-05-28T11:20:18.017Z,47.34
2019-05-28T11:21:18.016Z,46.74
2019-05-28T11:22:18.008Z,47.76
2019-05-28T11:23:18.015Z,48.35
2019-05-28T11:24:18.001Z,49.00
2019-05-28T11:25:17.995Z,48.71
2019-05-28T11:26:17.990Z,48.80
2019-05-28T11:27:17.987Z,50.96
2019-05-28T11:28:17.985Z,49.99
2019-05-28T11:29:17.979Z,49.99
2019-05-28T11:30:17.988Z,49.71
2019-05-28T11:31:17.986Z,49.97
2019-05-28T11:32:17.967Z,50.36
2019-05-28T11:33:17.969Z,49.07
2019-05-28T11:34:17.963Z,50.92
2019-05-28T11:35:17.958Z,50.46
2019-05-28T11:36:17.946Z,51.89
2019-05-28T11:37:17.946Z,50.72
2019-05-28T11:38:17.940Z,51.89
2019-05-28T11:39:17.935Z,51.21
2019-05-28T11:40:17.932Z,51.96
2019-05-28T11:41:17.924Z,51.09
2019-05-28T11:42:17.920Z,52.03
2019-05-28T11:43:17.912Z,52.22
2019-05-28T11:44:17.906Z,52.00
2019-05-28T11:45:18.716Z,52.10
2019-05-28T11:46:17.899Z,53.94
2019-05-28T11:47:17.896Z,54.13
2019-05-28T11:48:17.892Z,53.85
2019-05-28T11:49:17.888Z,53.75
2019-05-28T11:50:17.882Z,53.26
2019-05-28T11:51:17.877Z,52.75
2019-05-28T11:52:17.868Z,53.99
2019-05-28T11:53:17.877Z,54.08
2019-05-28T11:54:17.887Z,54.47
2019-05-28T11:55:17.854Z,53.69
2019-05-28T11:56:17.848Z,54.66
2019-05-28T11:57:17.838Z,53.81
2019-05-28T11:58:17.836Z,53.72
2019-05-28T11:59:17.825Z,52.63
2019-05-28T12:00:17.896Z,53.89
2019-05-28T12:01:33.257Z,53.69
2019-05-28T12:02:17.808Z,53.02
2019-05-28T12:03:17.798Z,53.79
2019-05-28T12:04:17.821Z,53.38
2019-05-28T12:05:17.784Z,54.37
2019-05-28T12:06:17.774Z,55.60
2019-05-28T12:07:26.171Z,55.11
2019-05-28T12:08:17.777Z,55.92
2019-05-28T12:09:17.750Z,55.79
2019-05-28T12:10:17.747Z,55.99
2019-05-28T12:11:17.742Z,56.47
2019-05-28T12:12:17.745Z,56.35
2019-05-28T12:13:18.336Z,56.25
2019-05-28T12:15:15.299Z,56.61
2019-05-28T12:16:15.311Z,56.71
2019-05-28T12:17:15.289Z,57.67
2019-05-28T12:18:15.273Z,57.87
2019-05-28T12:19:15.262Z,57.57
2019-05-28T12:20:15.258Z,58.64
2019-05-28T12:23:53.072Z,58.42
2019-05-28T12:24:53.065Z,58.90
2019-05-28T12:25:53.062Z,58.32
2019-05-28T12:30:19.002Z,58.83
2019-05-28T12:31:18.884Z,58.73
2019-05-28T12:32:18.868Z,58.15
2019-05-28T12:33:18.859Z,57.77
2019-05-28T12:34:18.846Z,58.09
2019-05-28T12:35:28.188Z,58.37
2019-05-28T12:36:18.833Z,58.47
2019-05-28T12:37:18.826Z,58.89
2019-05-28T12:38:18.814Z,57.99
2019-05-28T12:39:18.808Z,57.48
2019-05-28T12:40:18.808Z,58.64
2019-05-28T12:41:18.790Z,58.45
2019-05-28T12:42:18.782Z,59.31
2019-05-28T12:43:18.772Z,60.09
2019-05-28T12:44:18.762Z,58.45
2019-05-28T12:45:33.904Z,59.51
2019-05-28T12:46:18.743Z,59.51
2019-05-28T12:47:18.736Z,59.02
2019-05-28T12:48:18.721Z,59.41
2019-05-28T12:49:18.711Z,58.25
2019-05-28T12:50:20.784Z,58.73
2019-05-28T12:51:18.698Z,59.80
2019-05-28T12:52:18.685Z,58.64
2019-05-28T12:53:18.682Z,58.95
2019-05-28T12:54:18.667Z,58.76
2019-05-28T12:55:18.660Z,57.41
2019-05-28T12:56:18.652Z,57.12
2019-05-28T12:57:18.655Z,58.67
2019-05-28T12:58:18.860Z,58.80
2019-05-28T12:59:18.628Z,58.50
2019-05-28T13:00:18.617Z,58.02
2019-05-28T13:01:18.615Z,58.70
2019-05-28T13:02:18.600Z,57.92
2019-05-28T13:03:18.637Z,58.50
2019-05-28T13:04:18.583Z,58.40
2019-05-28T13:05:18.572Z,57.34
2019-05-28T13:06:18.631Z,57.56
2019-05-28T13:07:18.556Z,57.05
2019-05-28T13:08:18.542Z,57.54
2019-05-28T13:09:18.539Z,57.92
2019-05-28T13:10:18.541Z,58.40
2019-05-28T13:11:18.521Z,58.12
2019-05-28T13:12:18.530Z,57.89
2019-05-28T13:13:18.496Z,57.57
2019-05-28T13:14:18.483Z,57.67
2019-05-28T13:15:18.502Z,58.15
2019-05-28T13:16:18.471Z,59.22
2019-05-28T13:17:18.464Z,57.96
2019-05-28T13:18:18.447Z,58.25
2019-05-28T13:19:18.442Z,58.93
2019-05-28T13:20:19.037Z,59.02
2019-05-28T13:21:18.426Z,58.47
2019-05-28T13:22:18.421Z,57.79